Time;durP1;ratioP1;P1;durP2;ratioP2;P2;SDS_P1;SDS_P2;PMS_P1;PMS_P2;Temp;Humidity;BMP_temperature;BMP_pressure;BME280_temperature;BME280_humidity;BME280_pressure;Samples;Min_cycle;Max_cycle;Signal;HPM_P1;HPM_P2
2022/01/23 00:00:35;;;;;;;19.23;17.97;;;21.90;57.60;;;;;;4922732;29;21092;-51
2022/01/23 00:03:06;;;;;;;15.43;14.63;;;21.80;57.30;;;;;;4904179;29;20465;-52
2022/01/23 00:05:36;;;;;;;16.67;15.77;;;21.80;57.60;;;;;;4909610;29;20850;-50
2022/01/23 00:08:05;;;;;;;16.70;15.60;;;21.80;57.90;;;;;;4915102;29;20478;-50
2022/01/23 00:10:32;;;;;;;14.80;14.17;;;21.60;57.90;;;;;;4923862;29;20827;-50
2022/01/23 00:13:08;;;;;;;16.70;15.70;;;21.50;58.30;;;;;;4934405;29;20718;-52
2022/01/23 00:18:20;;;;;;;14.60;14.00;;;21.40;58.50;;;;;;4934713;29;20566;-48
2022/01/23 00:20:47;;;;;;;15.83;14.97;;;21.30;58.70;;;;;;4924394;29;20461;-51
2022/01/23 00:23:28;;;;;;;17.20;16.30;;;21.30;58.80;;;;;;4915440;29;20966;-51
2022/01/23 00:31:24;;;;;;;15.40;14.70;;;21.00;59.20;;;;;;4915508;29;20449;-49
2022/01/23 00:33:51;;;;;;;15.00;14.40;;;20.90;59.30;;;;;;4932427;29;20464;-51
2022/01/23 00:36:18;;;;;;;15.20;14.50;;;20.90;59.50;;;;;;4934045;29;20481;-53
2022/01/23 00:38:46;;;;;;;14.83;14.07;;;20.80;59.50;;;;;;4934066;29;20464;-51
2022/01/23 00:41:13;;;;;;;14.93;14.33;;;20.70;59.70;;;;;;4934162;29;20572;-51
2022/01/23 00:43:42;;;;;;;14.97;14.47;;;20.70;59.80;;;;;;4936644;29;20458;-52
2022/01/23 00:46:21;;;;;;;16.23;15.43;;;20.70;59.80;;;;;;4918506;29;20494;-56
2022/01/23 00:49:13;;;;;;;16.33;15.43;;;20.60;59.80;;;;;;4918830;29;20461;-53
2022/01/23 00:51:40;;;;;;;16.20;15.50;;;20.50;59.90;;;;;;4918768;29;20470;-54
2022/01/23 00:54:10;;;;;;;15.83;14.93;;;20.50;59.90;;;;;;4918708;29;20450;-52
2022/01/23 00:56:37;;;;;;;15.97;15.07;;;20.40;60.10;;;;;;4926596;29;20828;-50
2022/01/23 00:59:05;;;;;;;14.30;13.70;;;20.40;60.10;;;;;;4937721;29;20829;-48
2022/01/23 01:01:32;;;;;;;14.90;14.20;;;20.40;60.30;;;;;;4937733;29;20883;-47
2022/01/23 01:03:59;;;;;;;15.90;15.17;;;20.30;60.20;;;;;;4937421;29;20453;-48
2022/01/23 01:06:26;;;;;;;14.13;13.60;;;20.30;60.40;;;;;;4937389;29;20477;-56
2022/01/23 01:08:55;;;;;;;14.70;14.10;;;20.20;60.50;;;;;;4930045;29;20466;-55
2022/01/23 01:11:52;;;;;;;15.67;15.07;;;20.20;60.70;;;;;;4937512;29;20461;-54
2022/01/23 01:14:28;;;;;;;15.20;14.50;;;20.10;60.60;;;;;;4937386;29;20852;-53
2022/01/23 01:17:03;;;;;;;14.83;14.13;;;20.20;60.90;;;;;;4937052;29;20469;-51
2022/01/23 01:30:29;;;;;;;13.90;13.30;;;19.90;61.50;;;;;;4918184;29;20446;-52
2022/01/23 01:33:07;;;;;;;14.13;13.63;;;19.90;61.70;;;;;;4926943;29;20453;-50
2022/01/23 01:35:38;;;;;;;14.10;13.50;;;19.80;61.90;;;;;;4936689;29;20524;-51
2022/01/23 01:38:06;;;;;;;15.70;15.00;;;19.70;62.10;;;;;;4936931;29;20810;-55
2022/01/23 01:40:33;;;;;;;15.27;14.63;;;19.60;62.30;;;;;;4937086;29;20456;-50
2022/01/23 01:43:01;;;;;;;14.60;14.10;;;19.60;62.60;;;;;;4936871;29;20461;-52
2022/01/23 01:45:29;;;;;;;15.50;14.80;;;19.50;62.80;;;;;;4924799;29;20489;-48
2022/01/23 01:47:59;;;;;;;15.40;14.70;;;19.50;63.00;;;;;;4917712;29;20470;-52
2022/01/23 01:50:26;;;;;;;16.10;15.40;;;19.50;63.20;;;;;;4917823;29;20462;-51
2022/01/23 01:52:53;;;;;;;16.17;15.37;;;19.50;63.40;;;;;;4917694;29;20451;-48
2022/01/23 01:55:25;;;;;;;15.10;14.50;;;19.40;63.60;;;;;;4916498;29;20797;-50
2022/01/23 01:58:00;;;;;;;14.47;13.90;;;19.40;64.10;;;;;;4930865;29;20557;-47
2022/01/23 02:00:41;;;;;;;14.77;14.03;;;19.30;64.30;;;;;;4936580;29;20453;-52
2022/01/23 02:03:35;;;;;;;14.63;14.13;;;19.30;64.50;;;;;;4936640;29;20484;-50
2022/01/23 02:08:48;;;;;;;14.57;14.07;;;19.20;65.00;;;;;;4930135;29;20457;-50
2022/01/23 02:11:19;;;;;;;15.97;15.27;;;19.20;65.50;;;;;;4917416;29;20841;-50
2022/01/23 02:13:51;;;;;;;13.77;13.27;;;19.20;65.60;;;;;;4917667;29;20473;-47
2022/01/23 02:17:05;;;;;;;14.40;13.90;;;19.20;65.80;;;;;;4917161;29;21017;-53
2022/01/23 02:22:34;;;;;;;14.27;13.77;;;19.10;66.40;;;;;;4934492;29;20562;-49
2022/01/23 02:25:18;;;;;;;15.60;15.00;;;19.00;67.10;;;;;;4936091;29;20521;-51
2022/01/23 02:52:53;;;;;;;12.97;12.40;;;18.70;71.80;;;;;;4935722;29;20477;-51
2022/01/23 02:55:25;;;;;;;13.40;12.90;;;18.70;72.10;;;;;;4933960;29;20450;-54
2022/01/23 02:57:55;;;;;;;13.90;13.40;;;18.70;72.20;;;;;;4935456;29;20480;-55
2022/01/23 03:00:25;;;;;;;13.60;13.10;;;18.70;72.30;;;;;;4935477;29;20465;-55
2022/01/23 03:02:59;;;;;;;13.90;13.40;;;18.70;72.40;;;;;;4935457;29;20449;-55
2022/01/23 03:05:35;;;;;;;13.50;13.10;;;18.70;72.90;;;;;;4932193;29;20554;-52
2022/01/23 03:08:16;;;;;;;14.60;14.00;;;18.60;73.30;;;;;;4916374;29;20907;-53
2022/01/23 03:10:48;;;;;;;13.60;13.10;;;18.70;73.50;;;;;;4916420;29;20470;-52
2022/01/23 03:24:19;;;;;;;13.50;13.00;;;18.40;75.10;;;;;;4935139;29;20445;-51
2022/01/23 03:27:01;;;;;;;13.60;13.20;;;18.50;75.50;;;;;;4934728;29;20514;-51
2022/01/23 03:29:39;;;;;;;14.27;13.77;;;18.40;75.50;;;;;;4935044;29;20473;-51
2022/01/23 03:32:19;;;;;;;13.67;13.20;;;18.40;75.60;;;;;;4916023;29;20549;-47
2022/01/23 03:34:46;;;;;;;13.10;12.70;;;18.50;76.90;;;;;;4916150;29;20454;-52
2022/01/23 03:37:13;;;;;;;13.90;13.40;;;18.40;76.20;;;;;;4915674;29;20474;-52
2022/01/23 03:39:39;;;;;;;13.30;12.90;;;18.40;76.60;;;;;;4915955;29;20458;-54
2022/01/23 03:42:08;;;;;;;13.60;13.10;;;18.50;76.70;;;;;;4918745;29;20485;-48
2022/01/23 03:44:40;;;;;;;13.70;13.27;;;18.50;77.60;;;;;;4934839;29;20536;-53
2022/01/23 03:47:21;;;;;;;13.50;13.00;;;18.50;76.80;;;;;;4934321;29;20547;-52
2022/01/23 03:49:48;;;;;;;13.90;13.40;;;18.40;77.00;;;;;;4934818;29;20532;-49
2022/01/23 03:52:16;;;;;;;14.17;13.67;;;18.40;77.50;;;;;;4934575;29;20813;-53
2022/01/23 03:54:43;;;;;;;13.40;12.93;;;18.40;77.50;;;;;;4925688;29;20964;-51
2022/01/23 03:57:12;;;;;;;13.40;13.00;;;18.40;77.70;;;;;;4915330;29;20474;-49
2022/01/23 03:59:38;;;;;;;14.00;13.50;;;18.40;78.30;;;;;;4915583;29;20458;-49
2022/01/23 04:02:06;;;;;;;13.27;12.87;;;18.30;78.90;;;;;;4915641;29;20977;-49
2022/01/23 04:04:40;;;;;;;14.00;13.50;;;18.30;79.20;;;;;;4915510;29;20501;-47
2022/01/23 04:07:09;;;;;;;13.90;13.40;;;18.30;79.90;;;;;;4925927;29;20926;-50
2022/01/23 04:09:37;;;;;;;13.80;13.30;;;18.30;80.30;;;;;;4934577;29;20454;-52
2022/01/23 04:12:05;;;;;;;13.80;13.30;;;18.30;80.60;;;;;;4934440;29;20827;-48
2022/01/23 04:14:35;;;;;;;13.50;13.10;;;18.30;80.70;;;;;;4934372;29;20540;-51
2022/01/23 04:17:36;;;;;;;14.53;14.03;;;18.30;80.80;;;;;;4934506;29;20517;-52
2022/01/23 04:20:20;;;;;;;13.57;13.17;;;18.30;81.20;;;;;;4921957;29;20450;-51
2022/01/23 04:33:49;;;;;;;13.27;12.83;;;18.10;83.40;;;;;;4938265;29;20959;-49
2022/01/23 05:01:01;;;;;;;13.47;13.00;;;18.00;86.80;;;;;;4938056;29;20954;-53
2022/01/23 05:04:05;;;;;;;13.17;12.77;;;18.00;86.90;;;;;;4937701;29;20500;-49
2022/01/23 05:06:38;;;;;;;14.40;13.93;;;18.00;87.10;;;;;;4935288;29;21088;-49
2022/01/23 05:09:06;;;;;;;13.20;12.80;;;18.00;87.20;;;;;;4918610;29;20454;-47
2022/01/23 05:11:33;;;;;;;13.30;12.80;;;18.00;87.20;;;;;;4918407;29;20473;-47
2022/01/23 05:14:01;;;;;;;17.07;16.00;;;18.00;87.30;;;;;;4918472;29;20549;-50
2022/01/23 05:16:30;;;;;;;14.07;13.67;;;18.00;87.50;;;;;;4918113;29;20462;-50
2022/01/23 05:18:58;;;;;;;13.90;13.50;;;18.00;87.70;;;;;;4924403;29;20500;-47
2022/01/23 05:21:51;;;;;;;14.40;14.00;;;18.00;87.80;;;;;;4936905;29;20477;-47
2022/01/23 05:24:22;;;;;;;14.17;13.70;;;18.00;87.70;;;;;;4937510;29;20481;-54
2022/01/23 05:26:49;;;;;;;14.67;14.17;;;18.00;88.00;;;;;;4936872;29;20493;-51
2022/01/23 05:29:17;;;;;;;14.10;13.70;;;18.00;87.70;;;;;;4937006;29;20466;-55
2022/01/23 05:31:43;;;;;;;14.17;13.63;;;18.10;87.90;;;;;;4922777;29;20545;-51
2022/01/23 05:34:12;;;;;;;14.90;14.40;;;18.00;87.90;;;;;;4918176;29;20453;-52
2022/01/23 05:36:38;;;;;;;14.33;13.83;;;18.00;88.00;;;;;;4918030;29;20481;-51
2022/01/23 05:39:05;;;;;;;14.03;13.63;;;18.00;88.00;;;;;;4917975;29;20471;-52
2022/01/23 05:41:33;;;;;;;13.43;13.03;;;18.00;88.30;;;;;;4918085;29;20480;-49
2022/01/23 05:44:00;;;;;;;15.07;14.47;;;18.00;88.50;;;;;;4932257;29;20880;-49
2022/01/23 05:46:27;;;;;;;15.03;14.53;;;18.10;88.20;;;;;;4936135;29;20863;-54
2022/01/23 05:48:54;;;;;;;14.17;13.67;;;18.00;87.80;;;;;;4936861;29;20449;-51
2022/01/23 05:51:22;;;;;;;13.70;13.07;;;18.00;88.40;;;;;;4935353;29;20458;-50
2022/01/23 05:53:48;;;;;;;14.23;13.83;;;18.90;88.50;;;;;;4936677;29;20461;-55
2022/01/23 05:56:16;;;;;;;13.97;13.47;;;19.90;82.10;;;;;;4936695;29;20461;-51
2022/01/23 05:58:43;;;;;;;13.83;13.37;;;20.50;76.10;;;;;;4936760;29;20453;-53
2022/01/23 06:01:10;;;;;;;14.57;14.07;;;20.60;73.30;;;;;;4927742;29;20470;-49
2022/01/23 06:03:37;;;;;;;13.77;13.37;;;20.70;71.50;;;;;;4917918;29;20451;-54
2022/01/23 06:06:04;;;;;;;13.40;13.00;;;20.80;70.30;;;;;;4917266;29;20867;-54
2022/01/23 06:08:33;;;;;;;14.50;14.10;;;20.80;69.20;;;;;;4917437;29;20458;-55
2022/01/23 06:10:59;;;;;;;14.37;13.87;;;20.90;68.00;;;;;;4917708;29;20455;-49
2022/01/23 06:13:27;;;;;;;14.70;14.20;;;20.90;66.80;;;;;;4926911;29;20448;-51
2022/01/23 06:15:55;;;;;;;14.43;14.03;;;21.00;66.20;;;;;;4936375;29;20448;-47
2022/01/23 06:18:22;;;;;;;14.73;14.33;;;21.00;65.30;;;;;;4936250;29;20457;-53
2022/01/23 06:20:49;;;;;;;14.50;14.00;;;21.00;64.50;;;;;;4936200;29;20453;-48
2022/01/23 06:23:15;;;;;;;15.70;15.20;;;21.00;64.10;;;;;;4936122;29;20453;-49
2022/01/23 06:25:45;;;;;;;13.80;13.40;;;21.10;63.60;;;;;;4923885;29;20635;-53
2022/01/23 06:28:15;;;;;;;14.60;14.10;;;21.00;63.20;;;;;;4917294;29;20455;-51
2022/01/23 06:30:42;;;;;;;14.70;14.30;;;21.00;62.70;;;;;;4917286;29;20450;-52
2022/01/23 06:33:09;;;;;;;13.90;13.50;;;21.00;62.40;;;;;;4917115;29;20465;-48
2022/01/23 06:35:37;;;;;;;14.20;13.70;;;21.00;62.30;;;;;;4916888;29;20810;-51
2022/01/23 06:38:04;;;;;;;14.30;13.80;;;20.90;61.80;;;;;;4931498;29;20903;-53
2022/01/23 06:40:31;;;;;;;14.20;13.80;;;20.90;61.50;;;;;;4935320;29;20454;-50
2022/01/23 06:42:59;;;;;;;13.67;13.27;;;20.90;61.30;;;;;;4935894;29;20450;-52
2022/01/23 06:45:26;;;;;;;14.57;14.07;;;20.90;61.10;;;;;;4935500;29;20465;-54
2022/01/23 06:47:53;;;;;;;14.80;14.30;;;20.90;61.00;;;;;;4935676;29;20473;-56
2022/01/23 06:50:19;;;;;;;13.90;13.40;;;20.90;61.10;;;;;;4919283;29;21024;-53
2022/01/23 06:52:46;;;;;;;14.10;13.60;;;20.80;60.80;;;;;;4916739;29;20825;-55
2022/01/23 06:55:13;;;;;;;14.00;13.60;;;20.80;60.80;;;;;;4916467;29;20465;-50
2022/01/23 06:57:40;;;;;;;14.10;13.60;;;20.80;60.80;;;;;;4916716;29;20469;-54
2022/01/23 07:00:09;;;;;;;14.30;13.80;;;20.80;60.80;;;;;;4916582;29;20481;-52
2022/01/23 07:02:36;;;;;;;13.97;13.57;;;20.70;60.70;;;;;;4932872;29;20454;-49
2022/01/23 07:05:03;;;;;;;13.67;13.23;;;20.70;60.80;;;;;;4935524;29;20820;-54
2022/01/23 07:07:30;;;;;;;13.70;13.30;;;20.70;60.80;;;;;;4935019;29;20864;-48
2022/01/23 07:09:56;;;;;;;14.30;13.80;;;20.70;61.80;;;;;;4935425;29;20479;-50
2022/01/23 07:12:23;;;;;;;14.70;14.20;;;20.60;61.00;;;;;;4935338;29;20465;-52
2022/01/23 07:14:50;;;;;;;14.57;14.17;;;20.60;61.10;;;;;;4918150;29;20458;-53
2022/01/23 07:17:18;;;;;;;14.77;14.27;;;20.50;61.10;;;;;;4916133;29;20470;-55
2022/01/23 07:19:45;;;;;;;15.47;14.97;;;20.50;61.20;;;;;;4916297;29;20458;-52
2022/01/23 07:22:11;;;;;;;15.30;14.80;;;20.50;61.40;;;;;;4916306;29;20964;-52
2022/01/23 07:24:38;;;;;;;13.50;13.10;;;20.40;61.40;;;;;;4916149;29;20451;-50
2022/01/23 07:27:13;;;;;;;13.97;13.50;;;20.50;61.80;;;;;;4934280;29;21033;-54
2022/01/23 07:29:42;;;;;;;9.60;9.40;;;20.40;61.90;;;;;;4935005;29;20503;-54
2022/01/23 07:32:09;;;;;;;9.27;8.97;;;20.40;61.90;;;;;;4934953;29;20461;-55
2022/01/23 07:34:38;;;;;;;10.30;10.00;;;20.40;62.10;;;;;;4925352;29;20450;-50
2022/01/23 07:37:05;;;;;;;9.60;9.40;;;20.40;62.10;;;;;;4917975;29;21008;-51
2022/01/23 07:39:32;;;;;;;9.93;9.53;;;20.40;63.20;;;;;;4904524;29;20455;-49
2022/01/23 07:41:59;;;;;;;10.07;9.67;;;20.30;65.40;;;;;;4904578;29;20458;-53
2022/01/23 07:44:26;;;;;;;9.70;9.40;;;20.30;65.80;;;;;;4904534;29;20519;-50
2022/01/23 07:46:54;;;;;;;9.10;8.90;;;20.20;65.40;;;;;;4903771;29;20996;-50
2022/01/23 07:49:21;;;;;;;10.37;10.00;;;20.10;65.60;;;;;;4905203;29;21111;-51
2022/01/23 07:51:49;;;;;;;10.10;9.80;;;20.00;66.80;;;;;;4903447;29;20854;-54
2022/01/23 07:54:17;;;;;;;10.33;9.93;;;20.00;68.20;;;;;;4904025;29;20918;-49
2022/01/23 07:56:44;;;;;;;8.70;8.40;;;20.00;68.60;;;;;;4903131;29;20486;-47
2022/01/23 07:59:11;;;;;;;10.97;10.67;;;20.00;69.00;;;;;;4912421;29;20209;-48
2022/01/23 08:01:39;;;;;;;10.43;10.13;;;19.90;69.10;;;;;;4922869;29;21043;-48
2022/01/23 08:04:07;;;;;;;11.07;10.67;;;20.00;69.00;;;;;;4922581;29;20947;-51
2022/01/23 08:06:39;;;;;;;9.70;9.40;;;20.00;69.30;;;;;;4922238;29;20496;-47
2022/01/23 08:09:08;;;;;;;10.73;10.43;;;19.90;69.50;;;;;;4922609;29;20896;-50
2022/01/23 08:11:34;;;;;;;10.40;10.10;;;19.90;69.80;;;;;;4921251;29;20491;-52
2022/01/23 08:14:01;;;;;;;9.93;9.53;;;19.90;70.20;;;;;;4923088;29;20705;-49
2022/01/23 08:16:28;;;;;;;9.80;9.50;;;19.80;70.50;;;;;;4922626;29;20473;-49
2022/01/23 08:18:55;;;;;;;9.50;9.10;;;19.70;70.80;;;;;;4923142;29;20812;-48
2022/01/23 08:21:21;;;;;;;9.40;9.20;;;19.70;71.30;;;;;;4922829;29;20462;-50
2022/01/23 08:23:52;;;;;;;9.70;9.50;;;19.70;71.60;;;;;;4904551;29;20558;-49
2022/01/23 08:26:21;;;;;;;9.13;8.82;;;19.60;71.80;;;;;;4902895;29;20585;-50
2022/01/23 08:28:48;;;;;;;10.30;10.00;;;19.60;72.40;;;;;;4903751;29;20218;-53
2022/01/23 08:31:15;;;;;;;10.57;10.27;;;19.70;73.70;;;;;;4903569;29;20465;-53
2022/01/23 08:33:41;;;;;;;11.40;11.00;;;19.60;74.70;;;;;;4903568;29;20459;-50
2022/01/23 08:36:08;;;;;;;9.97;9.67;;;19.50;76.10;;;;;;4903342;29;20470;-52
2022/01/23 08:38:35;;;;;;;10.20;9.90;;;19.50;77.10;;;;;;4903446;29;20458;-51
2022/01/23 08:43:48;;;;;;;9.80;9.50;;;19.50;78.20;;;;;;4903680;29;20542;-53
2022/01/23 08:46:15;;;;;;;10.03;9.73;;;19.40;78.40;;;;;;4907844;29;20473;-49
2022/01/23 08:48:42;;;;;;;10.40;9.97;;;19.40;78.70;;;;;;4922791;29;20449;-49
2022/01/23 08:51:09;;;;;;;9.73;9.43;;;19.40;79.40;;;;;;4922821;29;21018;-50
2022/01/23 08:53:36;;;;;;;9.90;9.60;;;19.40;79.40;;;;;;4922197;29;20453;-51
2022/01/23 08:56:04;;;;;;;10.80;10.40;;;19.30;80.00;;;;;;4921716;29;20481;-51
2022/01/23 08:58:31;;;;;;;9.30;9.10;;;19.40;80.50;;;;;;4915256;29;20976;-48
2022/01/23 09:00:59;;;;;;;10.40;10.00;;;19.30;80.70;;;;;;4903614;29;20459;-52
2022/01/23 09:03:26;;;;;;;10.40;10.00;;;19.40;80.80;;;;;;4923663;29;20461;-54
2022/01/23 09:05:53;;;;;;;10.10;9.70;;;19.40;80.50;;;;;;4926236;29;20931;-53
2022/01/23 09:08:21;;;;;;;10.27;9.97;;;19.80;81.10;;;;;;4925558;29;20537;-51
2022/01/23 09:10:55;;;;;;;10.13;9.73;;;21.00;76.30;;;;;;4916454;29;20540;-55
2022/01/23 09:13:40;;;;;;;9.60;9.20;;;21.50;72.20;;;;;;4906789;29;20562;-56
2022/01/23 09:16:08;;;;;;;9.47;9.07;;;22.10;68.60;;;;;;4906236;29;20478;-56
2022/01/23 09:18:35;;;;;;;8.90;8.70;;;22.90;64.90;;;;;;4906799;29;20941;-57
2022/01/23 09:21:02;;;;;;;10.10;9.60;;;23.40;61.20;;;;;;4906902;29;20813;-57
2022/01/23 09:23:28;;;;;;;8.80;8.50;;;23.60;59.80;;;;;;4924743;29;20520;-53
2022/01/23 09:25:57;;;;;;;9.93;9.63;;;23.60;58.80;;;;;;4925679;29;20221;-51
2022/01/23 09:28:31;;;;;;;10.90;10.37;;;23.90;57.80;;;;;;4925230;29;21193;-49
2022/01/23 09:30:58;;;;;;;10.30;10.00;;;24.10;56.80;;;;;;4925591;29;20461;-51
2022/01/23 09:33:26;;;;;;;9.70;9.40;;;24.10;56.30;;;;;;4907285;29;20545;-52
2022/01/23 09:35:53;;;;;;;10.27;9.97;;;23.90;56.30;;;;;;4906430;29;20458;-52
2022/01/23 09:38:21;;;;;;;10.80;10.50;;;23.90;56.30;;;;;;4906424;29;20972;-52
2022/01/23 09:40:54;;;;;;;9.90;9.60;;;23.80;56.20;;;;;;4906299;29;20582;-52
2022/01/23 09:43:22;;;;;;;9.80;9.50;;;23.80;56.20;;;;;;4906775;29;20463;-55
2022/01/23 09:45:53;;;;;;;10.90;10.50;;;23.80;56.10;;;;;;4924627;29;20454;-54
2022/01/23 09:48:21;;;;;;;9.07;8.77;;;24.10;56.00;;;;;;4925299;29;20505;-51
2022/01/23 09:50:51;;;;;;;9.43;8.77;;;24.30;55.30;;;;;;4925298;29;20812;-53
2022/01/23 09:53:21;;;;;;;9.37;9.07;;;24.60;54.50;;;;;;4925086;29;20453;-52
2022/01/23 09:55:52;;;;;;;10.27;9.90;;;24.80;53.50;;;;;;4918777;29;20802;-49
2022/01/23 09:58:20;;;;;;;9.90;9.60;;;25.00;52.70;;;;;;4905677;29;20478;-52
2022/01/23 10:00:47;;;;;;;11.83;11.43;;;25.00;52.20;;;;;;4906086;29;20550;-55
2022/01/23 10:03:19;;;;;;;11.80;11.40;;;24.90;51.70;;;;;;4906129;29;20462;-54
2022/01/23 10:05:53;;;;;;;11.90;11.40;;;24.80;51.70;;;;;;4905683;29;20564;-51
2022/01/23 10:08:20;;;;;;;11.93;11.40;;;24.90;51.80;;;;;;4916536;29;20959;-50
2022/01/23 10:10:52;;;;;;;11.93;11.43;;;24.80;51.80;;;;;;4924176;29;20472;-55
2022/01/23 10:13:22;;;;;;;9.90;9.53;;;24.80;51.70;;;;;;4924261;29;20461;-55
2022/01/23 10:15:49;;;;;;;9.63;9.23;;;25.00;51.70;;;;;;4922875;29;20453;-55
2022/01/23 10:18:18;;;;;;;11.30;10.90;;;25.10;51.30;;;;;;4922333;29;20464;-57
2022/01/23 10:20:46;;;;;;;12.07;11.57;;;25.10;51.30;;;;;;4905345;29;20482;-59
2022/01/23 10:23:16;;;;;;;11.80;11.40;;;25.00;51.50;;;;;;4905446;29;20465;-57
2022/01/23 10:25:44;;;;;;;10.87;10.53;;;24.90;51.50;;;;;;4905765;29;20605;-56
2022/01/23 10:28:16;;;;;;;10.17;9.87;;;24.90;51.30;;;;;;4905081;29;20580;-56
2022/01/23 10:30:46;;;;;;;10.07;9.73;;;24.90;51.30;;;;;;4905640;29;21026;-53
2022/01/23 10:33:19;;;;;;;10.93;10.53;;;24.70;51.90;;;;;;4905235;29;20474;-54
2022/01/23 10:36:01;;;;;;;10.40;10.10;;;24.60;51.40;;;;;;4904922;29;20458;-55
2022/01/23 10:38:33;;;;;;;10.43;10.13;;;24.60;51.50;;;;;;4905455;29;20490;-56
2022/01/23 10:47:28;;;;;;;11.40;11.10;;;24.70;51.30;;;;;;4905047;29;20232;-51
2022/01/23 10:49:56;;;;;;;10.70;10.30;;;24.80;51.30;;;;;;4905112;29;20464;-52
2022/01/23 10:52:33;;;;;;;11.33;10.93;;;24.90;51.30;;;;;;4904829;29;21050;-51
2022/01/23 10:55:02;;;;;;;10.90;10.60;;;24.80;51.20;;;;;;4921507;29;20914;-56
2022/01/23 10:57:38;;;;;;;11.03;10.63;;;24.70;51.30;;;;;;4923624;29;20640;-51
2022/01/23 11:00:08;;;;;;;11.83;11.43;;;24.70;51.40;;;;;;4923823;29;20459;-53
2022/01/23 11:02:39;;;;;;;10.37;10.00;;;24.60;51.40;;;;;;4923786;29;20449;-54
2022/01/23 11:05:10;;;;;;;10.00;9.70;;;24.70;51.40;;;;;;4920504;29;21180;-54
2022/01/23 11:07:41;;;;;;;11.20;10.80;;;24.60;51.40;;;;;;4904426;29;20635;-52
2022/01/23 11:10:13;;;;;;;10.50;10.03;;;24.70;51.30;;;;;;4914765;29;20461;-50
2022/01/23 11:18:14;;;;;;;11.20;10.80;;;24.90;50.50;;;;;;4904816;29;21019;-54
2022/01/23 11:20:44;;;;;;;11.13;10.67;;;24.90;50.70;;;;;;4905527;29;20955;-48
2022/01/23 11:23:16;;;;;;;11.30;10.90;;;24.90;50.50;;;;;;4923523;29;20449;-48
2022/01/23 11:25:47;;;;;;;11.30;10.80;;;24.90;50.60;;;;;;4923379;29;20249;-47
2022/01/23 11:28:14;;;;;;;11.57;11.13;;;25.00;50.30;;;;;;4915195;29;20489;-50
2022/01/23 11:30:44;;;;;;;12.30;11.80;;;25.00;50.60;;;;;;4923515;29;20456;-47
2022/01/23 11:33:15;;;;;;;11.80;11.30;;;25.00;50.90;;;;;;4923761;29;21008;-48
2022/01/23 11:35:42;;;;;;;11.63;11.23;;;25.00;51.20;;;;;;4923493;29;20454;-48
2022/01/23 11:38:15;;;;;;;12.20;11.70;;;25.00;51.20;;;;;;4921380;29;20492;-46
2022/01/23 11:54:57;;;;;;;11.73;11.33;;;24.90;53.60;;;;;;4904227;29;20434;-46
2022/01/23 11:57:44;;;;;;;12.60;12.10;;;24.80;53.80;;;;;;4903726;29;20604;-49
2022/01/23 12:00:17;;;;;;;10.27;9.88;;;24.80;53.90;;;;;;4903330;29;20522;-46
2022/01/23 12:02:45;;;;;;;11.13;10.77;;;24.80;53.80;;;;;;4906793;29;20228;-51
2022/01/23 12:05:25;;;;;;;9.70;9.40;;;24.80;53.70;;;;;;4914460;29;20470;-49
2022/01/23 12:08:31;;;;;;;11.73;11.30;;;24.90;53.30;;;;;;4903548;29;20528;-47
2022/01/23 12:17:42;;;;;;;10.77;10.40;;;24.80;53.20;;;;;;4922677;29;20483;-48
2022/01/23 12:20:10;;;;;;;10.43;9.93;;;24.80;53.00;;;;;;4922683;29;20476;-48
2022/01/23 12:22:42;;;;;;;11.93;11.40;;;24.90;52.80;;;;;;4907842;29;20908;-50
2022/01/23 12:25:21;;;;;;;11.33;10.93;;;24.90;52.60;;;;;;4903921;29;20499;-52
2022/01/23 12:27:48;;;;;;;11.47;11.07;;;24.90;52.70;;;;;;4903640;29;20494;-49
2022/01/23 12:30:41;;;;;;;10.80;10.50;;;24.90;52.80;;;;;;4903788;29;20472;-50
2022/01/23 12:33:17;;;;;;;11.10;10.70;;;24.90;52.70;;;;;;4903949;29;20473;-48
2022/01/23 12:35:47;;;;;;;10.37;10.00;;;25.00;52.60;;;;;;4903623;29;20449;-50
2022/01/23 12:38:14;;;;;;;10.83;10.43;;;25.00;52.80;;;;;;4904537;29;20959;-51
2022/01/23 12:40:45;;;;;;;10.73;10.33;;;24.90;52.70;;;;;;4908702;29;20455;-48
2022/01/23 12:43:15;;;;;;;10.20;9.83;;;24.90;52.70;;;;;;4907179;29;20458;-49
2022/01/23 12:45:55;;;;;;;11.33;10.83;;;24.90;52.80;;;;;;4906697;29;21001;-50
2022/01/23 12:48:48;;;;;;;10.73;10.33;;;24.90;52.90;;;;;;4907274;29;20486;-48
2022/01/23 12:51:36;;;;;;;11.40;11.00;;;25.00;52.90;;;;;;4923439;29;20457;-49
2022/01/23 12:54:21;;;;;;;11.50;11.00;;;24.90;52.80;;;;;;4926327;29;20936;-49
2022/01/23 12:56:50;;;;;;;11.57;11.17;;;24.90;52.80;;;;;;4926043;29;20480;-47
2022/01/23 12:59:24;;;;;;;11.60;11.20;;;24.90;52.80;;;;;;4925956;29;20464;-49
2022/01/23 13:01:58;;;;;;;10.70;10.30;;;24.90;52.70;;;;;;4918986;29;20454;-48
2022/01/23 13:04:30;;;;;;;10.60;10.20;;;25.00;52.70;;;;;;4907148;29;20986;-47
2022/01/23 13:07:01;;;;;;;11.00;10.63;;;24.90;52.60;;;;;;4906873;29;20474;-48
2022/01/23 13:09:37;;;;;;;10.10;9.80;;;24.90;52.60;;;;;;4906578;29;20580;-51
2022/01/23 13:12:10;;;;;;;11.10;10.70;;;25.00;52.60;;;;;;4906443;29;20489;-52
2022/01/23 13:14:53;;;;;;;10.23;9.93;;;25.00;52.40;;;;;;4918210;29;20496;-51
2022/01/23 13:17:51;;;;;;;10.63;10.23;;;25.00;52.40;;;;;;4925683;29;20485;-49
2022/01/23 13:31:39;;;;;;;11.13;10.73;;;25.10;52.10;;;;;;4925067;29;20432;-53
2022/01/23 13:37:02;;;;;;;10.40;10.10;;;25.10;52.00;;;;;;5077704;28;20579;-50
2022/01/23 13:39:32;;;;;;;11.40;10.90;;;25.10;51.90;;;;;;5057641;28;20815;-51
2022/01/23 13:42:17;;;;;;;11.63;11.23;;;25.00;51.70;;;;;;5052329;28;20552;-52
2022/01/23 13:53:24;;;;;;;10.13;9.83;;;25.00;51.80;;;;;;5054331;28;20474;-53
2022/01/23 13:58:38;;;;;;;10.30;9.90;;;24.90;51.90;;;;;;5054067;28;20477;-54
2022/01/23 14:01:35;;;;;;;10.67;10.27;;;24.80;51.90;;;;;;5056780;28;21021;-53
2022/01/23 14:04:02;;;;;;;10.03;9.73;;;24.80;52.00;;;;;;5056959;28;20865;-56
2022/01/23 14:06:29;;;;;;;9.93;9.57;;;24.90;51.90;;;;;;5056415;28;20586;-50
2022/01/23 14:09:05;;;;;;;10.50;10.13;;;24.90;52.10;;;;;;5037693;28;21126;-51
2022/01/23 14:11:32;;;;;;;11.47;11.03;;;25.00;52.00;;;;;;5036521;28;20443;-53
2022/01/23 14:14:14;;;;;;;10.07;9.77;;;25.00;51.60;;;;;;5036427;28;20448;-53
2022/01/23 14:16:41;;;;;;;10.10;9.73;;;25.00;51.40;;;;;;5050285;28;20930;-51
2022/01/23 14:19:17;;;;;;;33.73;30.70;;;25.00;51.50;;;;;;5051537;28;20455;-53
2022/01/23 14:21:47;;;;;;;32.03;29.13;;;23.50;43.90;;;;;;5053782;28;20471;-50
2022/01/23 14:24:26;;;;;;;30.70;28.10;;;21.80;44.60;;;;;;5056259;28;20448;-50
2022/01/23 14:27:03;;;;;;;34.07;30.63;;;21.10;47.20;;;;;;5055779;28;20470;-53
2022/01/23 14:29:30;;;;;;;31.57;28.77;;;20.70;48.70;;;;;;5055868;28;20458;-52
2022/01/23 14:32:09;;;;;;;30.38;27.77;;;19.90;48.30;;;;;;5036756;28;20450;-51
2022/01/23 14:34:36;;;;;;;30.37;27.57;;;19.80;50.20;;;;;;5036051;28;20208;-52
2022/01/23 14:37:03;;;;;;;29.80;27.00;;;19.40;50.70;;;;;;5035762;28;20484;-51
2022/01/23 14:39:32;;;;;;;31.30;28.20;;;19.10;51.70;;;;;;5035974;28;20563;-58
2022/01/23 14:42:14;;;;;;;32.23;29.27;;;18.60;52.30;;;;;;5044896;28;20480;-53
2022/01/23 14:44:41;;;;;;;31.57;28.60;;;18.20;53.70;;;;;;5055872;28;20505;-53
2022/01/23 14:47:10;;;;;;;30.80;28.00;;;18.60;54.90;;;;;;5048796;28;20774;-53
2022/01/23 14:49:38;;;;;;;30.87;27.80;;;18.40;53.90;;;;;;5042408;28;20447;-51
2022/01/23 14:52:10;;;;;;;32.13;29.10;;;18.30;54.00;;;;;;5033146;28;20561;-52
2022/01/23 14:54:38;;;;;;;29.37;26.57;;;18.20;54.40;;;;;;5022787;28;20788;-53
2022/01/23 14:57:07;;;;;;;30.47;27.37;;;18.00;53.70;;;;;;5021939;28;20488;-53
2022/01/23 14:59:35;;;;;;;28.43;25.83;;;17.70;54.50;;;;;;5022272;28;20449;-55
2022/01/23 15:02:04;;;;;;;30.63;27.83;;;17.60;55.00;;;;;;5023938;28;20475;-56
2022/01/23 15:04:40;;;;;;;27.57;25.07;;;17.50;55.50;;;;;;5042469;28;20444;-55
2022/01/23 15:07:13;;;;;;;31.90;28.67;;;17.50;55.90;;;;;;5041957;28;20474;-54
2022/01/23 15:09:43;;;;;;;13.77;12.77;;;17.40;56.00;;;;;;5042148;28;20482;-48
2022/01/23 15:12:10;;;;;;;10.40;9.80;;;18.70;66.30;;;;;;5038286;28;20460;-49
2022/01/23 15:14:37;;;;;;;12.33;11.73;;;20.90;65.00;;;;;;5022172;28;20777;-48
2022/01/23 15:17:04;;;;;;;11.40;10.80;;;22.30;59.80;;;;;;5022130;28;20882;-51
2022/01/23 15:19:31;;;;;;;11.77;11.17;;;22.90;57.90;;;;;;5022122;28;20455;-52
2022/01/23 15:21:58;;;;;;;10.83;10.23;;;23.20;57.50;;;;;;5021826;28;20453;-53
2022/01/23 15:24:25;;;;;;;11.17;10.70;;;23.40;57.00;;;;;;5036758;28;20503;-50
2022/01/23 15:26:54;;;;;;;11.80;11.20;;;23.60;56.90;;;;;;5041572;28;20464;-49